CYXR

Earlton (Timiskaming Regional) Airport

Earlton, Ontario, Canada
METAR CYXR 220600Z AUTO 30004KT 9SM CLR M03/M07 A3037 RMK SLP299
Observed Flight Rules
Apr-22 @ 06:00 UTC (49 minutes ago) Visual Flight Rules
Wind Visibility Clouds
300° at 4 knots 9 miles
  • Clear skies
Temperatures Readings
Current -3°C / 27°F
Dewpoint -7°C / 19°F
Humidity 74%
Altimeter 30.37" Hg
Pressure 1029.9 hPa
Elevation 243
METAR CYXR 220600Z AUTO 30004KT 9SM CLR M03/M07 A3037 RMK SLP299
Observed Flight Rules
Apr-22 @ 06:00 UTC
(49 minutes ago)
VFR
Wind Visibility
300° at 4 knots 9 miles
Clouds
  • Clear skies
Temperature Dewpoint
-3°C / 27°F -7°C / 19°F
Humidity Altimeter Pressure
74% 30.37" Hg 1029.9 hPa